Time;durP1;ratioP1;P1;durP2;ratioP2;P2;SDS_P1;SDS_P2;PMS_P1;PMS_P2;Temp;Humidity;BMP_temperature;BMP_pressure;BME280_temperature;BME280_humidity;BME280_pressure;Samples;Min_cycle;Max_cycle;Signal;HPM_P1;HPM_P2
2022/05/14 00:01:51;;;;;;;3.17;2.88;;;;;;;;;;12492759;28;20045;-77
2022/05/14 00:07:53;;;;;;;10.60;4.55;;;;;;;;;;12494413;28;20053;-77
2022/05/14 00:13:55;;;;;;;3.60;2.65;;;;;;;;;;12479386;28;20041;-77
2022/05/14 00:19:57;;;;;;;;;;;;;;;;;;12502370;28;20502;-77
2022/05/14 00:25:58;;;;;;;3.13;2.92;;;;;;;;;;12503390;28;19916;-78
2022/05/14 00:32:00;;;;;;;3.80;3.50;;;;;;;;;;12484904;28;20069;-77
2022/05/14 00:38:02;;;;;;;4.25;3.22;;;;;;;;;;12469640;28;20040;-77
2022/05/14 00:44:04;;;;;;;;;;;;;;;;;;12502742;28;20053;-77
2022/05/14 00:50:21;;;;;;;3.88;3.47;;;;;;;;;;12484541;28;19932;-77
2022/05/14 00:56:26;;;;;;;5.10;4.45;;;;;;;;;;12500621;28;20033;-77
2022/05/14 01:02:28;;;;;;;4.55;4.15;;;;;;;;;;12467378;28;20041;-77
2022/05/14 01:08:31;;;;;;;4.38;3.97;;;;;;;;;;12500214;28;20410;-77
2022/05/14 01:14:33;;;;;;;4.20;3.88;;;;;;;;;;12499560;28;20572;-77
2022/05/14 01:20:36;;;;;;;4.60;4.20;;;;;;;;;;12466827;28;20116;-77
2022/05/14 01:26:40;;;;;;;6.05;5.43;;;;;;;;;;12498424;28;20046;-77
2022/05/14 01:32:46;;;;;;;5.18;4.70;;;;;;;;;;12467006;28;20030;-77
2022/05/14 01:38:49;;;;;;;5.15;4.65;;;;;;;;;;12499239;28;20394;-77
2022/05/14 01:44:51;;;;;;;4.82;3.95;;;;;;;;;;12482070;28;20041;-77
2022/05/14 01:50:53;;;;;;;5.35;4.28;;;;;;;;;;12499089;28;20041;-76
2022/05/14 01:56:54;;;;;;;3.80;3.50;;;;;;;;;;12497994;28;20036;-76
2022/05/14 02:02:56;;;;;;;3.65;3.35;;;;;;;;;;12464734;28;20445;-76
2022/05/14 02:08:59;;;;;;;2.15;2.05;;;;;;;;;;12497566;28;20053;-77
2022/05/14 02:15:01;;;;;;;4.30;3.90;;;;;;;;;;12464057;28;20041;-77
2022/05/14 02:21:05;;;;;;;4.55;3.78;;;;;;;;;;12496836;28;20046;-78
2022/05/14 02:27:07;;;;;;;4.88;4.45;;;;;;;;;;12463591;28;20040;-78
2022/05/14 02:33:09;;;;;;;5.15;4.65;;;;;;;;;;12497536;28;20398;-78
2022/05/14 02:39:11;;;;;;;5.25;4.78;;;;;;;;;;12495173;28;20034;-78
2022/05/14 02:45:13;;;;;;;;;;;;;;;;;;12463032;28;20053;-76
2022/05/14 02:51:14;;;;;;;4.77;4.20;;;;;;;;;;12495384;28;20299;-77
2022/05/14 02:57:16;;;;;;;4.85;4.10;;;;;;;;;;12494828;28;20486;-77
2022/05/14 03:03:18;;;;;;;5.43;4.93;;;;;;;;;;12461934;28;20041;-77
2022/05/14 03:09:21;;;;;;;3.95;3.65;;;;;;;;;;12462090;28;20052;-77
2022/05/14 03:15:22;;;;;;;5.32;4.93;;;;;;;;;;12495612;28;20398;-77
2022/05/14 03:21:24;;;;;;;6.43;5.65;;;;;;;;;;12462079;28;20052;-76
2022/05/14 03:27:26;;;;;;;4.68;4.28;;;;;;;;;;12461147;28;20402;-77
2022/05/14 03:33:28;;;;;;;5.63;5.13;;;;;;;;;;12477240;28;20030;-77
2022/05/14 03:39:30;;;;;;;4.60;4.22;;;;;;;;;;12493867;28;20040;-77
2022/05/14 03:45:32;;;;;;;5.72;5.22;;;;;;;;;;12476608;28;20052;-77
2022/05/14 03:51:33;;;;;;;5.60;5.10;;;;;;;;;;12502292;28;20033;-77
2022/05/14 03:57:35;;;;;;;5.28;4.85;;;;;;;;;;12470340;28;20034;-76
2022/05/14 04:03:37;;;;;;;;;;;;;;;;;;12471115;28;20040;-77
2022/05/14 04:09:39;;;;;;;4.78;4.18;;;;;;;;;;12504306;28;19924;-77
2022/05/14 04:15:42;;;;;;;4.50;4.10;;;;;;;;;;12469504;28;20038;-77
2022/05/14 04:21:44;;;;;;;5.25;4.80;;;;;;;;;;12468980;28;20056;-77
2022/05/14 04:27:46;;;;;;;5.13;4.63;;;;;;;;;;12501629;28;20084;-77
2022/05/14 04:33:49;;;;;;;5.10;4.30;;;;;;;;;;12501619;28;20037;-76
2022/05/14 04:39:50;;;;;;;;;;;;;;;;;;12469516;28;20497;-77
2022/05/14 04:45:52;;;;;;;6.18;5.65;;;;;;;;;;12501059;28;20370;-76
2022/05/14 04:51:55;;;;;;;5.07;4.57;;;;;;;;;;12500862;28;20032;-78
2022/05/14 04:57:59;;;;;;;8.52;7.82;;;;;;;;;;12500365;28;20067;-77
2022/05/14 05:04:02;;;;;;;4.40;4.03;;;;;;;;;;12499599;28;20041;-77
2022/05/14 05:10:04;;;;;;;3.63;3.33;;;;;;;;;;12500178;28;20077;-78
2022/05/14 05:16:06;;;;;;;4.57;4.25;;;;;;;;;;12500954;28;20041;-77
2022/05/14 05:22:07;;;;;;;3.88;3.10;;;;;;;;;;12482653;28;20041;-76
2022/05/14 05:28:09;;;;;;;4.88;4.43;;;;;;;;;;12466509;28;20037;-77
2022/05/14 05:34:11;;;;;;;2.80;2.60;;;;;;;;;;12500100;28;20041;-77
2022/05/14 05:40:12;;;;;;;3.35;3.13;;;;;;;;;;12500959;28;20038;-77
2022/05/14 05:46:15;;;;;;;4.07;3.78;;;;;;;;;;12498048;28;20053;-77
2022/05/14 05:52:16;;;;;;;3.65;3.35;;;;;;;;;;12481455;28;20026;-77
2022/05/14 05:58:19;;;;;;;1.67;1.58;;;;;;;;;;12498998;28;20037;-77
2022/05/14 06:04:22;;;;;;;2.50;2.15;;;;;;;;;;12480957;28;20072;-77
2022/05/14 06:10:24;;;;;;;2.45;2.25;;;;;;;;;;12498309;28;20049;-77
2022/05/14 06:16:26;;;;;;;3.20;2.90;;;;;;;;;;12496729;28;20060;-76
2022/05/14 06:22:27;;;;;;;;;;;;;;;;;;12498009;28;20037;-76
2022/05/14 06:28:29;;;;;;;4.15;3.22;;;;;;;;;;12497221;28;19909;-76
2022/05/14 06:34:31;;;;;;;3.40;3.10;;;;;;;;;;12463115;28;20038;-76
2022/05/14 06:40:33;;;;;;;3.22;2.92;;;;;;;;;;12480281;28;20053;-76
2022/05/14 06:46:35;;;;;;;2.35;2.17;;;;;;;;;;12496336;28;20045;-76
2022/05/14 06:52:38;;;;;;;3.30;3.10;;;;;;;;;;12462324;28;20052;-76
2022/05/14 06:58:40;;;;;;;4.28;3.90;;;;;;;;;;12462112;28;20029;-76
2022/05/14 07:11:02;;;;;;;3.60;3.30;;;;;;;;;;12495814;28;20407;-76
2022/05/14 07:17:04;;;;;;;3.13;2.92;;;;;;;;;;12494277;28;20224;-76
2022/05/14 07:23:06;;;;;;;3.20;3.00;;;;;;;;;;12493334;28;20052;-76
2022/05/14 07:29:09;;;;;;;2.97;2.60;;;;;;;;;;12461251;28;20513;-76
2022/05/14 07:35:11;;;;;;;4.00;3.60;;;;;;;;;;12493573;28;20033;-76
2022/05/14 07:41:12;;;;;;;;;;;;;;;;;;12477044;28;20056;-76
2022/05/14 07:47:14;;;;;;;3.37;3.10;;;;;;;;;;12494955;28;19913;-77
2022/05/14 07:53:17;;;;;;;3.13;2.92;;;;;;;;;;12460383;28;20044;-77
2022/05/14 07:59:20;;;;;;;3.35;3.03;;;;;;;;;;12492666;28;20041;-77
2022/05/14 08:05:22;;;;;;;3.92;3.63;;;;;;;;;;12494101;28;20038;-77
2022/05/14 08:11:24;;;;;;;3.75;3.45;;;;;;;;;;12494029;28;20080;-77
2022/05/14 08:17:27;;;;;;;3.50;3.30;;;;;;;;;;12493896;28;20038;-77
2022/05/14 08:29:50;;;;;;;4.95;3.50;;;;;;;;;;12492432;28;20495;-77
2022/05/14 08:35:52;;;;;;;4.47;3.78;;;;;;;;;;12464602;28;20033;-77
2022/05/14 08:41:56;;;;;;;5.10;3.60;;;;;;;;;;12501918;28;20060;-77
2022/05/14 08:48:00;;;;;;;5.00;3.67;;;;;;;;;;12502708;28;20032;-77
2022/05/14 08:54:03;;;;;;;3.85;3.08;;;;;;;;;;12500819;28;20052;-77
2022/05/14 09:00:06;;;;;;;3.58;3.28;;;;;;;;;;12483861;28;20398;-77
2022/05/14 09:06:07;;;;;;;3.70;3.40;;;;;;;;;;12484262;28;20052;-77
2022/05/14 09:12:09;;;;;;;;;;;;;;;;;;12501412;28;20061;-77
2022/05/14 09:18:12;;;;;;;3.70;3.40;;;;;;;;;;12501016;28;19916;-77
2022/05/14 09:24:16;;;;;;;4.53;3.55;;;;;;;;;;12500605;28;20040;-77
2022/05/14 09:30:29;;;;;;;3.10;2.90;;;;;;;;;;12500601;28;20037;-77
2022/05/14 09:36:32;;;;;;;3.58;3.28;;;;;;;;;;12500318;28;20034;-77
2022/05/14 09:42:42;;;;;;;3.92;3.45;;;;;;;;;;12499530;28;20414;-77
2022/05/14 09:48:46;;;;;;;3.55;3.25;;;;;;;;;;12465049;28;20367;-77
2022/05/14 09:54:50;;;;;;;3.53;3.22;;;;;;;;;;12497357;28;20033;-77
2022/05/14 10:00:56;;;;;;;2.83;2.63;;;;;;;;;;12497239;28;20064;-77
2022/05/14 10:07:05;;;;;;;2.78;2.58;;;;;;;;;;12498777;28;20049;-77
2022/05/14 10:13:19;;;;;;;2.75;2.55;;;;;;;;;;12480511;28;20056;-77
2022/05/14 10:19:41;;;;;;;3.45;3.03;;;;;;;;;;12497871;28;20038;-77
2022/05/14 10:32:26;;;;;;;2.35;2.20;;;;;;;;;;12480459;28;20025;-77
2022/05/14 10:38:30;;;;;;;2.58;2.38;;;;;;;;;;12496739;28;20037;-77
2022/05/14 10:44:38;;;;;;;2.40;2.20;;;;;;;;;;12497490;28;20049;-78
2022/05/14 10:50:40;;;;;;;2.65;2.45;;;;;;;;;;12478563;28;20372;-78
2022/05/14 10:56:51;;;;;;;2.20;1.98;;;;;;;;;;12477789;28;20490;-78
2022/05/14 11:03:11;;;;;;;2.38;2.17;;;;;;;;;;12494390;28;20410;-76
2022/05/14 11:09:21;;;;;;;2.95;2.72;;;;;;;;;;12461618;28;20054;-77
2022/05/14 11:15:23;;;;;;;2.53;2.33;;;;;;;;;;12495217;28;20052;-77
2022/05/14 11:21:42;;;;;;;2.90;2.70;;;;;;;;;;12493649;28;20056;-77
2022/05/14 11:27:53;;;;;;;3.00;2.70;;;;;;;;;;12494018;28;20430;-77
2022/05/14 11:33:58;;;;;;;5.90;3.57;;;;;;;;;;12493604;28;20385;-77
2022/05/14 11:40:05;;;;;;;3.03;2.58;;;;;;;;;;12494620;28;20033;-77
2022/05/14 11:46:23;;;;;;;2.40;2.20;;;;;;;;;;12494582;28;20049;-77
2022/05/14 11:52:29;;;;;;;2.03;1.80;;;;;;;;;;12493110;28;20044;-77
2022/05/14 11:58:31;;;;;;;3.00;2.80;;;;;;;;;;12460121;28;20034;-77
2022/05/14 12:04:34;;;;;;;3.72;1.80;;;;;;;;;;12492955;28;20060;-77
2022/05/14 12:10:45;;;;;;;2.85;2.40;;;;;;;;;;12464838;28;20064;-77
2022/05/14 12:16:47;;;;;;;2.67;2.33;;;;;;;;;;12503609;28;20056;-77
2022/05/14 12:22:53;;;;;;;1.98;1.88;;;;;;;;;;12503415;28;20045;-78
2022/05/14 12:28:55;;;;;;;2.10;1.88;;;;;;;;;;12503048;28;20037;-78
2022/05/14 12:34:57;;;;;;;2.00;1.80;;;;;;;;;;12502727;28;20056;-78
2022/05/14 12:40:59;;;;;;;2.55;2.10;;;;;;;;;;12484490;28;20423;-78
2022/05/14 12:47:03;;;;;;;2.15;2.05;;;;;;;;;;12502064;28;20030;-78
2022/05/14 12:53:06;;;;;;;2.20;2.00;;;;;;;;;;12501282;28;20037;-77
2022/05/14 12:59:07;;;;;;;1.92;1.77;;;;;;;;;;12501440;28;20036;-77
2022/05/14 13:05:19;;;;;;;6.47;1.73;;;;;;;;;;12483194;28;20052;-77
2022/05/14 13:11:22;;;;;;;1.55;1.45;;;;;;;;;;12483810;28;20414;-78
2022/05/14 13:17:31;;;;;;;1.77;1.30;;;;;;;;;;12500434;28;20068;-77
2022/05/14 13:23:34;;;;;;;1.52;1.42;;;;;;;;;;12498993;28;20038;-78
2022/05/14 13:29:38;;;;;;;1.95;1.50;;;;;;;;;;12482876;28;20053;-78
2022/05/14 13:42:00;;;;;;;1.70;1.60;;;;;;;;;;12499455;28;20076;-77
2022/05/14 13:48:04;;;;;;;1.75;1.65;;;;;;;;;;12481703;28;20040;-77
2022/05/14 13:54:13;;;;;;;2.03;1.60;;;;;;;;;;12498684;28;20041;-77
2022/05/14 14:00:19;;;;;;;2.17;1.40;;;;;;;;;;12498616;28;20049;-78
2022/05/14 14:06:22;;;;;;;1.83;1.15;;;;;;;;;;12498002;28;20107;-76
2022/05/14 14:12:25;;;;;;;2.28;1.40;;;;;;;;;;12498866;28;20049;-77
2022/05/14 14:18:27;;;;;;;1.63;1.52;;;;;;;;;;12480026;28;20033;-77
2022/05/14 14:24:29;;;;;;;1.55;1.45;;;;;;;;;;12497536;28;20491;-77
2022/05/14 14:30:31;;;;;;;1.73;1.52;;;;;;;;;;12497413;28;20041;-77
2022/05/14 14:36:51;;;;;;;2.05;1.45;;;;;;;;;;12508783;28;20379;-77
2022/05/14 14:42:53;;;;;;;1.60;1.17;;;;;;;;;;12479439;28;20052;-77
2022/05/14 14:48:56;;;;;;;1.58;1.15;;;;;;;;;;12496413;28;20166;-77
2022/05/14 14:54:58;;;;;;;1.42;1.20;;;;;;;;;;12496066;28;20369;-77
2022/05/14 15:01:00;;;;;;;1.98;1.20;;;;;;;;;;12478286;28;20030;-77
2022/05/14 15:07:23;;;;;;;1.30;1.20;;;;;;;;;;12491210;28;20084;-78
2022/05/14 15:13:27;;;;;;;1.25;1.15;;;;;;;;;;12461514;28;20037;-77
2022/05/14 15:19:28;;;;;;;1.67;1.40;;;;;;;;;;12494034;28;20029;-77
2022/05/14 15:25:30;;;;;;;2.35;1.08;;;;;;;;;;12494835;28;20037;-77
2022/05/14 15:31:32;;;;;;;1.35;1.20;;;;;;;;;;12493616;28;20398;-77
2022/05/14 15:37:39;;;;;;;1.25;1.20;;;;;;;;;;12494223;28;20040;-77
2022/05/14 15:43:42;;;;;;;1.30;1.20;;;;;;;;;;12493807;28;20048;-77
2022/05/14 15:49:46;;;;;;;1.40;1.30;;;;;;;;;;12494447;28;20038;-77
2022/05/14 15:55:49;;;;;;;2.80;1.60;;;;;;;;;;12460588;28;20415;-77
2022/05/14 16:01:52;;;;;;;2.97;2.55;;;;;;;;;;12492806;28;20049;-77
2022/05/14 16:07:54;;;;;;;2.88;2.55;;;;;;;;;;12476534;28;20414;-78
2022/05/14 16:20:16;;;;;;;3.60;2.42;;;;;;;;;;12493886;28;20056;-77
2022/05/14 16:26:18;;;;;;;2.00;1.90;;;;;;;;;;12475878;28;20068;-77
2022/05/14 16:32:20;;;;;;;2.20;2.00;;;;;;;;;;12492212;28;20509;-77
2022/05/14 16:38:22;;;;;;;2.20;1.60;;;;;;;;;;12494158;28;20375;-77
2022/05/14 16:44:24;;;;;;;2.17;1.58;;;;;;;;;;12493310;28;20121;-77
2022/05/14 16:50:26;;;;;;;1.63;1.52;;;;;;;;;;12493049;28;20042;-77
2022/05/14 16:56:28;;;;;;;2.00;1.90;;;;;;;;;;12477520;28;20034;-77
2022/05/14 17:02:30;;;;;;;4.63;1.90;;;;;;;;;;12500672;28;20041;-78
2022/05/14 17:08:31;;;;;;;1.73;1.63;;;;;;;;;;12483937;28;20068;-77
2022/05/14 17:14:33;;;;;;;1.60;1.48;;;;;;;;;;12501219;28;20037;-77
2022/05/14 17:20:36;;;;;;;2.25;2.03;;;;;;;;;;12500811;28;20088;-77
2022/05/14 17:26:38;;;;;;;2.03;1.92;;;;;;;;;;12466630;28;20041;-77
2022/05/14 17:32:40;;;;;;;2.20;2.00;;;;;;;;;;12482617;28;20034;-77
2022/05/14 17:45:04;;;;;;;1.77;1.67;;;;;;;;;;12499795;28;20517;-77
2022/05/14 17:51:06;;;;;;;1.92;1.83;;;;;;;;;;12465483;28;20398;-77
2022/05/14 17:57:09;;;;;;;2.90;1.73;;;;;;;;;;12497819;28;20410;-77
2022/05/14 18:03:12;;;;;;;1.17;1.08;;;;;;;;;;12464907;28;20434;-77
2022/05/14 18:09:14;;;;;;;1.73;1.63;;;;;;;;;;12480755;28;20422;-77
2022/05/14 18:15:16;;;;;;;1.63;1.52;;;;;;;;;;12464401;28;20211;-77
2022/05/14 18:21:18;;;;;;;2.20;1.23;;;;;;;;;;12496354;28;20041;-77
2022/05/14 18:27:19;;;;;;;;;;;;;;;;;;12497779;28;20610;-77
2022/05/14 18:33:23;;;;;;;1.50;1.40;;;;;;;;;;12497285;28;19920;-77
2022/05/14 18:39:29;;;;;;;1.38;1.02;;;;;;;;;;12496141;28;20045;-77
2022/05/14 18:45:33;;;;;;;1.20;1.10;;;;;;;;;;12494824;28;20407;-77
2022/05/14 18:51:34;;;;;;;0.80;0.80;;;;;;;;;;12494997;28;20308;-78
2022/05/14 18:57:36;;;;;;;;;;;;;;;;;;12496592;28;20029;-78
2022/05/14 19:03:37;;;;;;;2.20;1.40;;;;;;;;;;12494391;28;19917;-77
2022/05/14 19:09:39;;;;;;;;;;;;;;;;;;12462426;28;20061;-76
2022/05/14 19:15:41;;;;;;;1.63;1.27;;;;;;;;;;12494979;28;19913;-76
2022/05/14 19:21:46;;;;;;;1.70;1.50;;;;;;;;;;12460657;28;20038;-77
2022/05/14 19:27:47;;;;;;;1.00;1.00;;;;;;;;;;12478212;28;20040;-77
2022/05/14 19:33:49;;;;;;;1.50;1.40;;;;;;;;;;12494668;28;20060;-77
2022/05/14 19:39:53;;;;;;;1.92;1.30;;;;;;;;;;12494297;28;20045;-77
2022/05/14 19:45:58;;;;;;;1.08;0.98;;;;;;;;;;12460670;28;20498;-77
2022/05/14 19:51:59;;;;;;;2.53;1.02;;;;;;;;;;12493199;28;20506;-77
2022/05/14 19:58:04;;;;;;;1.42;1.17;;;;;;;;;;12494368;28;20041;-76
2022/05/14 20:04:10;;;;;;;1.17;1.08;;;;;;;;;;12494146;28;20053;-77
2022/05/14 20:10:12;;;;;;;1.20;1.10;;;;;;;;;;12494679;28;20053;-77
2022/05/14 20:22:45;;;;;;;1.02;1.00;;;;;;;;;;12456706;28;20065;-77
2022/05/14 20:28:47;;;;;;;1.30;1.20;;;;;;;;;;12475625;28;20037;-77
2022/05/14 20:34:48;;;;;;;;;;;;;;;;;;12469565;28;20042;-77
2022/05/14 20:40:50;;;;;;;1.50;1.10;;;;;;;;;;12485743;28;19917;-77
2022/05/14 20:46:52;;;;;;;1.45;0.90;;;;;;;;;;12484796;28;20045;-77
2022/05/14 20:52:54;;;;;;;0.95;0.80;;;;;;;;;;12501311;28;20041;-77
2022/05/14 20:58:56;;;;;;;;;;;;;;;;;;12502282;28;20030;-77
2022/05/14 21:04:57;;;;;;;1.07;1.00;;;;;;;;;;12499972;28;19917;-77
2022/05/14 21:10:59;;;;;;;1.50;1.10;;;;;;;;;;12501806;28;20057;-77
2022/05/14 21:17:01;;;;;;;1.60;1.38;;;;;;;;;;12483754;28;20028;-77
2022/05/14 21:23:02;;;;;;;0.40;0.40;;;;;;;;;;12500211;28;20060;-77
2022/05/14 21:29:06;;;;;;;1.60;1.50;;;;;;;;;;12482965;28;20040;-78
2022/05/14 21:41:29;;;;;;;1.30;1.20;;;;;;;;;;12499175;28;20037;-78
2022/05/14 21:47:31;;;;;;;1.58;1.30;;;;;;;;;;12482144;28;20036;-78
2022/05/14 21:53:32;;;;;;;1.50;1.40;;;;;;;;;;12498559;28;20467;-78
2022/05/14 21:59:34;;;;;;;1.63;1.48;;;;;;;;;;12465341;28;20509;-78
2022/05/14 22:05:39;;;;;;;1.52;1.27;;;;;;;;;;12497672;28;20048;-78
2022/05/14 22:11:40;;;;;;;1.77;1.67;;;;;;;;;;12499277;28;20057;-78
2022/05/14 22:17:43;;;;;;;1.75;1.65;;;;;;;;;;12497041;28;20034;-78
2022/05/14 22:23:44;;;;;;;;;;;;;;;;;;12498412;28;20068;-78
2022/05/14 22:29:46;;;;;;;2.10;1.95;;;;;;;;;;12480122;28;20259;-78
2022/05/14 22:35:48;;;;;;;2.33;2.13;;;;;;;;;;12480254;28;20034;-78
2022/05/14 22:41:50;;;;;;;2.03;1.85;;;;;;;;;;12497352;28;20312;-76
2022/05/14 22:47:51;;;;;;;2.40;2.20;;;;;;;;;;12463057;28;20474;-77
2022/05/14 22:53:54;;;;;;;2.10;1.95;;;;;;;;;;12462839;28;20044;-76
2022/05/14 22:59:56;;;;;;;2.65;2.10;;;;;;;;;;12462516;28;20044;-77
2022/05/14 23:05:58;;;;;;;2.38;1.92;;;;;;;;;;12494958;28;20387;-77
2022/05/14 23:12:00;;;;;;;;;;;;;;;;;;12495174;28;20057;-76
2022/05/14 23:18:03;;;;;;;3.17;2.67;;;;;;;;;;12496557;28;20386;-76
2022/05/14 23:24:05;;;;;;;2.60;2.20;;;;;;;;;;12495202;28;20036;-76
2022/05/14 23:30:08;;;;;;;3.00;2.70;;;;;;;;;;12493812;28;20041;-76
2022/05/14 23:36:25;;;;;;;3.08;2.25;;;;;;;;;;12494043;28;20045;-76
2022/05/14 23:42:27;;;;;;;2.00;1.88;;;;;;;;;;12493310;28;20049;-76
2022/05/14 23:48:29;;;;;;;2.92;2.65;;;;;;;;;;12494654;28;20042;-76
2022/05/14 23:54:30;;;;;;;2.83;2.30;;;;;;;;;;12476706;28;20041;-76
